sensor_id;sensor_type;location;lat;lon;timestamp;P1;durP1;ratioP1;P2;durP2;ratioP2
66585;SDS011;53444;45.822;16.092;2022-12-18T00:02:01;57.38;;;25.60;;
66585;SDS011;53444;45.822;16.092;2022-12-18T00:04:28;55.83;;;25.90;;
66585;SDS011;53444;45.822;16.092;2022-12-18T00:06:55;52.75;;;24.80;;
66585;SDS011;53444;45.822;16.092;2022-12-18T00:09:22;63.83;;;25.98;;
66585;SDS011;53444;45.822;16.092;2022-12-18T00:11:50;65.25;;;28.38;;
66585;SDS011;53444;45.822;16.092;2022-12-18T00:14:16;60.78;;;27.15;;
66585;SDS011;53444;45.822;16.092;2022-12-18T00:16:43;62.90;;;28.60;;
66585;SDS011;53444;45.822;16.092;2022-12-18T00:19:11;57.35;;;27.83;;
66585;SDS011;53444;45.822;16.092;2022-12-18T00:21:38;61.10;;;27.60;;
66585;SDS011;53444;45.822;16.092;2022-12-18T00:24:07;57.08;;;26.58;;
66585;SDS011;53444;45.822;16.092;2022-12-18T00:26:35;52.90;;;23.50;;
66585;SDS011;53444;45.822;16.092;2022-12-18T00:29:04;52.77;;;22.77;;
66585;SDS011;53444;45.822;16.092;2022-12-18T00:31:33;46.35;;;21.73;;
66585;SDS011;53444;45.822;16.092;2022-12-18T00:34:01;48.90;;;20.35;;
66585;SDS011;53444;45.822;16.092;2022-12-18T00:36:28;42.83;;;19.25;;
66585;SDS011;53444;45.822;16.092;2022-12-18T00:38:56;41.53;;;18.63;;
66585;SDS011;53444;45.822;16.092;2022-12-18T00:41:25;40.70;;;18.30;;
66585;SDS011;53444;45.822;16.092;2022-12-18T00:44:16;40.30;;;18.90;;
66585;SDS011;53444;45.822;16.092;2022-12-18T00:46:45;42.90;;;18.70;;
66585;SDS011;53444;45.822;16.092;2022-12-18T00:49:12;40.00;;;17.73;;
66585;SDS011;53444;45.822;16.092;2022-12-18T00:51:40;41.95;;;19.33;;
66585;SDS011;53444;45.822;16.092;2022-12-18T00:54:07;41.37;;;19.00;;
66585;SDS011;53444;45.822;16.092;2022-12-18T00:56:34;38.55;;;18.33;;
66585;SDS011;53444;45.822;16.092;2022-12-18T00:59:01;36.45;;;17.42;;
66585;SDS011;53444;45.822;16.092;2022-12-18T01:01:29;40.95;;;19.45;;
66585;SDS011;53444;45.822;16.092;2022-12-18T01:03:56;37.67;;;18.02;;
66585;SDS011;53444;45.822;16.092;2022-12-18T01:06:22;38.00;;;16.67;;
66585;SDS011;53444;45.822;16.092;2022-12-18T01:08:49;40.72;;;16.40;;
66585;SDS011;53444;45.822;16.092;2022-12-18T01:11:16;35.13;;;15.68;;
66585;SDS011;53444;45.822;16.092;2022-12-18T01:13:44;30.42;;;14.75;;
66585;SDS011;53444;45.822;16.092;2022-12-18T01:16:12;31.00;;;14.05;;
66585;SDS011;53444;45.822;16.092;2022-12-18T01:18:41;34.80;;;13.93;;
66585;SDS011;53444;45.822;16.092;2022-12-18T01:21:08;32.90;;;14.52;;
66585;SDS011;53444;45.822;16.092;2022-12-18T01:23:37;28.10;;;13.50;;
66585;SDS011;53444;45.822;16.092;2022-12-18T01:26:04;28.52;;;13.80;;
66585;SDS011;53444;45.822;16.092;2022-12-18T01:28:33;31.65;;;13.25;;
66585;SDS011;53444;45.822;16.092;2022-12-18T01:31:09;27.83;;;12.90;;
66585;SDS011;53444;45.822;16.092;2022-12-18T01:33:40;26.17;;;12.80;;
66585;SDS011;53444;45.822;16.092;2022-12-18T01:36:07;27.20;;;12.25;;
66585;SDS011;53444;45.822;16.092;2022-12-18T01:38:34;27.80;;;12.98;;
66585;SDS011;53444;45.822;16.092;2022-12-18T01:41:01;32.03;;;13.02;;
66585;SDS011;53444;45.822;16.092;2022-12-18T01:43:40;32.00;;;12.73;;
66585;SDS011;53444;45.822;16.092;2022-12-18T01:46:11;29.45;;;12.93;;
66585;SDS011;53444;45.822;16.092;2022-12-18T01:48:37;27.17;;;12.07;;
66585;SDS011;53444;45.822;16.092;2022-12-18T01:51:08;25.95;;;12.18;;
66585;SDS011;53444;45.822;16.092;2022-12-18T01:53:36;26.83;;;12.07;;
66585;SDS011;53444;45.822;16.092;2022-12-18T01:56:03;23.07;;;10.90;;
66585;SDS011;53444;45.822;16.092;2022-12-18T01:58:32;24.77;;;12.20;;
66585;SDS011;53444;45.822;16.092;2022-12-18T02:01:05;27.10;;;12.02;;
66585;SDS011;53444;45.822;16.092;2022-12-18T02:03:32;27.58;;;11.70;;
66585;SDS011;53444;45.822;16.092;2022-12-18T02:05:59;26.83;;;12.23;;
66585;SDS011;53444;45.822;16.092;2022-12-18T02:08:36;31.73;;;12.97;;
66585;SDS011;53444;45.822;16.092;2022-12-18T02:11:09;30.35;;;13.50;;
66585;SDS011;53444;45.822;16.092;2022-12-18T02:13:42;31.42;;;13.30;;
66585;SDS011;53444;45.822;16.092;2022-12-18T02:16:18;25.77;;;12.52;;
66585;SDS011;53444;45.822;16.092;2022-12-18T02:18:50;30.13;;;11.98;;
66585;SDS011;53444;45.822;16.092;2022-12-18T02:21:25;30.63;;;13.53;;
66585;SDS011;53444;45.822;16.092;2022-12-18T02:24:03;25.63;;;11.10;;
66585;SDS011;53444;45.822;16.092;2022-12-18T02:26:40;25.77;;;12.93;;
66585;SDS011;53444;45.822;16.092;2022-12-18T02:29:12;33.90;;;13.98;;
66585;SDS011;53444;45.822;16.092;2022-12-18T02:31:42;31.75;;;13.25;;
66585;SDS011;53444;45.822;16.092;2022-12-18T02:34:12;31.43;;;14.10;;
66585;SDS011;53444;45.822;16.092;2022-12-18T02:36:40;33.72;;;13.23;;
66585;SDS011;53444;45.822;16.092;2022-12-18T02:39:09;31.95;;;14.95;;
66585;SDS011;53444;45.822;16.092;2022-12-18T02:41:37;40.80;;;17.05;;
66585;SDS011;53444;45.822;16.092;2022-12-18T02:44:07;38.97;;;16.73;;
66585;SDS011;53444;45.822;16.092;2022-12-18T02:46:36;37.80;;;16.63;;
66585;SDS011;53444;45.822;16.092;2022-12-18T02:49:06;35.33;;;15.75;;
66585;SDS011;53444;45.822;16.092;2022-12-18T02:51:42;38.60;;;16.98;;
66585;SDS011;53444;45.822;16.092;2022-12-18T02:54:18;38.95;;;16.33;;
66585;SDS011;53444;45.822;16.092;2022-12-18T02:56:55;38.20;;;17.40;;
66585;SDS011;53444;45.822;16.092;2022-12-18T02:59:25;44.30;;;18.03;;
66585;SDS011;53444;45.822;16.092;2022-12-18T03:01:57;36.65;;;17.20;;
66585;SDS011;53444;45.822;16.092;2022-12-18T03:04:28;42.90;;;17.45;;
66585;SDS011;53444;45.822;16.092;2022-12-18T03:06:59;42.75;;;18.27;;
66585;SDS011;53444;45.822;16.092;2022-12-18T03:09:29;42.78;;;17.98;;
66585;SDS011;53444;45.822;16.092;2022-12-18T03:12:02;38.50;;;16.10;;
66585;SDS011;53444;45.822;16.092;2022-12-18T03:14:53;37.80;;;16.73;;
66585;SDS011;53444;45.822;16.092;2022-12-18T03:17:23;35.67;;;16.33;;
66585;SDS011;53444;45.822;16.092;2022-12-18T03:19:52;35.67;;;16.45;;
66585;SDS011;53444;45.822;16.092;2022-12-18T03:22:22;36.47;;;15.75;;
66585;SDS011;53444;45.822;16.092;2022-12-18T03:24:50;37.17;;;17.47;;
66585;SDS011;53444;45.822;16.092;2022-12-18T03:27:19;36.05;;;17.73;;
66585;SDS011;53444;45.822;16.092;2022-12-18T03:29:48;40.38;;;16.75;;
66585;SDS011;53444;45.822;16.092;2022-12-18T03:32:23;38.22;;;15.77;;
66585;SDS011;53444;45.822;16.092;2022-12-18T03:34:55;34.10;;;14.40;;
66585;SDS011;53444;45.822;16.092;2022-12-18T03:37:26;32.43;;;14.60;;
66585;SDS011;53444;45.822;16.092;2022-12-18T03:39:53;37.42;;;14.85;;
66585;SDS011;53444;45.822;16.092;2022-12-18T03:42:22;30.45;;;14.63;;
66585;SDS011;53444;45.822;16.092;2022-12-18T03:44:55;33.70;;;15.50;;
66585;SDS011;53444;45.822;16.092;2022-12-18T03:47:26;33.55;;;15.15;;
66585;SDS011;53444;45.822;16.092;2022-12-18T03:49:56;33.00;;;15.03;;
66585;SDS011;53444;45.822;16.092;2022-12-18T03:52:27;33.70;;;14.80;;
66585;SDS011;53444;45.822;16.092;2022-12-18T03:54:56;34.30;;;15.25;;
66585;SDS011;53444;45.822;16.092;2022-12-18T03:57:27;34.72;;;15.35;;
66585;SDS011;53444;45.822;16.092;2022-12-18T03:59:57;34.67;;;15.57;;
66585;SDS011;53444;45.822;16.092;2022-12-18T04:02:27;36.13;;;15.30;;
66585;SDS011;53444;45.822;16.092;2022-12-18T04:04:56;33.05;;;15.88;;
66585;SDS011;53444;45.822;16.092;2022-12-18T04:07:25;41.67;;;16.70;;
66585;SDS011;53444;45.822;16.092;2022-12-18T04:09:53;36.78;;;16.60;;
66585;SDS011;53444;45.822;16.092;2022-12-18T04:12:23;39.72;;;15.82;;
66585;SDS011;53444;45.822;16.092;2022-12-18T04:14:52;35.03;;;15.23;;
66585;SDS011;53444;45.822;16.092;2022-12-18T04:17:19;31.50;;;14.52;;
66585;SDS011;53444;45.822;16.092;2022-12-18T04:19:45;32.85;;;14.60;;
66585;SDS011;53444;45.822;16.092;2022-12-18T04:22:12;34.17;;;14.75;;
66585;SDS011;53444;45.822;16.092;2022-12-18T04:24:39;35.60;;;15.15;;
66585;SDS011;53444;45.822;16.092;2022-12-18T04:27:05;35.23;;;15.57;;
66585;SDS011;53444;45.822;16.092;2022-12-18T04:29:34;33.40;;;15.40;;
66585;SDS011;53444;45.822;16.092;2022-12-18T04:32:02;34.53;;;14.07;;
66585;SDS011;53444;45.822;16.092;2022-12-18T04:34:28;31.58;;;14.68;;
66585;SDS011;53444;45.822;16.092;2022-12-18T04:36:55;31.45;;;13.52;;
66585;SDS011;53444;45.822;16.092;2022-12-18T04:39:22;35.97;;;15.13;;
66585;SDS011;53444;45.822;16.092;2022-12-18T04:41:48;35.30;;;15.98;;
66585;SDS011;53444;45.822;16.092;2022-12-18T04:44:15;32.08;;;13.52;;
66585;SDS011;53444;45.822;16.092;2022-12-18T04:46:42;31.30;;;14.25;;
66585;SDS011;53444;45.822;16.092;2022-12-18T04:49:10;28.52;;;13.63;;
66585;SDS011;53444;45.822;16.092;2022-12-18T04:51:36;34.37;;;16.00;;
66585;SDS011;53444;45.822;16.092;2022-12-18T04:54:03;36.47;;;15.23;;
66585;SDS011;53444;45.822;16.092;2022-12-18T04:56:30;33.70;;;14.77;;
66585;SDS011;53444;45.822;16.092;2022-12-18T04:58:57;32.08;;;16.58;;
66585;SDS011;53444;45.822;16.092;2022-12-18T05:01:24;39.63;;;18.08;;
66585;SDS011;53444;45.822;16.092;2022-12-18T05:03:50;38.67;;;15.73;;
66585;SDS011;53444;45.822;16.092;2022-12-18T05:06:19;29.27;;;14.48;;
66585;SDS011;53444;45.822;16.092;2022-12-18T05:08:45;40.55;;;17.33;;
66585;SDS011;53444;45.822;16.092;2022-12-18T05:11:12;33.58;;;16.23;;
66585;SDS011;53444;45.822;16.092;2022-12-18T05:13:40;36.13;;;14.80;;
66585;SDS011;53444;45.822;16.092;2022-12-18T05:16:07;36.73;;;16.50;;
66585;SDS011;53444;45.822;16.092;2022-12-18T05:18:34;37.50;;;16.08;;
66585;SDS011;53444;45.822;16.092;2022-12-18T05:21:01;36.72;;;16.48;;
66585;SDS011;53444;45.822;16.092;2022-12-18T05:23:29;41.70;;;19.38;;
66585;SDS011;53444;45.822;16.092;2022-12-18T05:25:57;44.15;;;17.73;;
66585;SDS011;53444;45.822;16.092;2022-12-18T05:28:25;43.00;;;17.97;;
66585;SDS011;53444;45.822;16.092;2022-12-18T05:30:54;41.90;;;18.17;;
66585;SDS011;53444;45.822;16.092;2022-12-18T05:33:23;41.60;;;16.67;;
66585;SDS011;53444;45.822;16.092;2022-12-18T05:35:50;37.28;;;16.45;;
66585;SDS011;53444;45.822;16.092;2022-12-18T05:38:17;39.17;;;16.38;;
66585;SDS011;53444;45.822;16.092;2022-12-18T05:40:46;34.53;;;14.90;;
66585;SDS011;53444;45.822;16.092;2022-12-18T05:43:13;35.53;;;14.93;;
66585;SDS011;53444;45.822;16.092;2022-12-18T05:45:41;35.55;;;16.35;;
66585;SDS011;53444;45.822;16.092;2022-12-18T05:48:08;34.85;;;15.57;;
66585;SDS011;53444;45.822;16.092;2022-12-18T05:50:38;37.65;;;16.58;;
66585;SDS011;53444;45.822;16.092;2022-12-18T05:53:06;31.67;;;15.23;;
66585;SDS011;53444;45.822;16.092;2022-12-18T05:55:33;36.50;;;14.82;;
66585;SDS011;53444;45.822;16.092;2022-12-18T05:58:03;37.65;;;15.80;;
66585;SDS011;53444;45.822;16.092;2022-12-18T06:00:30;33.97;;;17.83;;
66585;SDS011;53444;45.822;16.092;2022-12-18T06:03:05;34.80;;;16.17;;
66585;SDS011;53444;45.822;16.092;2022-12-18T06:05:34;33.23;;;15.67;;
66585;SDS011;53444;45.822;16.092;2022-12-18T06:08:01;39.30;;;15.88;;
66585;SDS011;53444;45.822;16.092;2022-12-18T06:10:28;32.78;;;15.30;;
66585;SDS011;53444;45.822;16.092;2022-12-18T06:12:59;34.47;;;14.85;;
66585;SDS011;53444;45.822;16.092;2022-12-18T06:15:27;42.28;;;16.27;;
66585;SDS011;53444;45.822;16.092;2022-12-18T06:17:54;40.17;;;16.63;;
66585;SDS011;53444;45.822;16.092;2022-12-18T06:20:21;40.35;;;16.02;;
66585;SDS011;53444;45.822;16.092;2022-12-18T06:22:51;37.78;;;16.40;;
66585;SDS011;53444;45.822;16.092;2022-12-18T06:25:17;39.88;;;16.60;;
66585;SDS011;53444;45.822;16.092;2022-12-18T06:27:44;40.15;;;16.58;;
66585;SDS011;53444;45.822;16.092;2022-12-18T06:30:13;37.40;;;16.40;;
66585;SDS011;53444;45.822;16.092;2022-12-18T06:32:41;33.47;;;14.45;;
66585;SDS011;53444;45.822;16.092;2022-12-18T06:35:08;30.98;;;14.65;;
66585;SDS011;53444;45.822;16.092;2022-12-18T06:37:35;31.70;;;14.80;;
66585;SDS011;53444;45.822;16.092;2022-12-18T06:40:02;32.95;;;15.02;;
66585;SDS011;53444;45.822;16.092;2022-12-18T06:42:35;33.50;;;16.30;;
66585;SDS011;53444;45.822;16.092;2022-12-18T06:45:04;34.42;;;15.48;;
66585;SDS011;53444;45.822;16.092;2022-12-18T06:47:34;34.03;;;15.68;;
66585;SDS011;53444;45.822;16.092;2022-12-18T06:50:02;37.58;;;16.98;;
66585;SDS011;53444;45.822;16.092;2022-12-18T06:52:31;33.10;;;15.55;;
66585;SDS011;53444;45.822;16.092;2022-12-18T06:54:57;39.87;;;15.37;;
66585;SDS011;53444;45.822;16.092;2022-12-18T06:57:24;30.17;;;14.30;;
66585;SDS011;53444;45.822;16.092;2022-12-18T06:59:51;33.17;;;14.07;;
66585;SDS011;53444;45.822;16.092;2022-12-18T07:02:18;30.83;;;13.10;;
66585;SDS011;53444;45.822;16.092;2022-12-18T07:04:45;35.80;;;14.73;;
66585;SDS011;53444;45.822;16.092;2022-12-18T07:07:17;32.60;;;14.40;;
66585;SDS011;53444;45.822;16.092;2022-12-18T07:09:44;31.08;;;14.32;;
66585;SDS011;53444;45.822;16.092;2022-12-18T07:12:10;30.27;;;12.95;;
66585;SDS011;53444;45.822;16.092;2022-12-18T07:14:37;34.10;;;14.40;;
66585;SDS011;53444;45.822;16.092;2022-12-18T07:17:03;33.00;;;14.50;;
66585;SDS011;53444;45.822;16.092;2022-12-18T07:19:30;32.03;;;14.47;;
66585;SDS011;53444;45.822;16.092;2022-12-18T07:21:57;35.00;;;15.27;;
66585;SDS011;53444;45.822;16.092;2022-12-18T07:24:25;38.30;;;13.43;;
66585;SDS011;53444;45.822;16.092;2022-12-18T07:26:51;30.73;;;14.25;;
66585;SDS011;53444;45.822;16.092;2022-12-18T07:29:18;27.08;;;13.07;;
66585;SDS011;53444;45.822;16.092;2022-12-18T07:31:44;33.13;;;13.30;;
66585;SDS011;53444;45.822;16.092;2022-12-18T07:34:11;32.63;;;14.57;;
66585;SDS011;53444;45.822;16.092;2022-12-18T07:36:39;32.97;;;14.95;;
66585;SDS011;53444;45.822;16.092;2022-12-18T07:39:05;35.17;;;15.77;;
66585;SDS011;53444;45.822;16.092;2022-12-18T07:41:33;33.95;;;15.40;;
66585;SDS011;53444;45.822;16.092;2022-12-18T07:44:00;34.63;;;16.03;;
66585;SDS011;53444;45.822;16.092;2022-12-18T07:46:27;39.50;;;15.95;;
66585;SDS011;53444;45.822;16.092;2022-12-18T07:48:53;35.88;;;16.58;;
66585;SDS011;53444;45.822;16.092;2022-12-18T07:51:21;42.22;;;17.48;;
66585;SDS011;53444;45.822;16.092;2022-12-18T07:53:48;43.53;;;16.65;;
66585;SDS011;53444;45.822;16.092;2022-12-18T07:56:14;40.53;;;16.10;;
66585;SDS011;53444;45.822;16.092;2022-12-18T07:58:42;31.60;;;14.85;;
66585;SDS011;53444;45.822;16.092;2022-12-18T08:01:11;34.88;;;14.27;;
66585;SDS011;53444;45.822;16.092;2022-12-18T08:03:38;35.22;;;15.02;;
66585;SDS011;53444;45.822;16.092;2022-12-18T08:06:06;34.30;;;13.27;;
66585;SDS011;53444;45.822;16.092;2022-12-18T08:08:34;30.27;;;14.30;;
66585;SDS011;53444;45.822;16.092;2022-12-18T08:11:01;37.08;;;15.10;;
66585;SDS011;53444;45.822;16.092;2022-12-18T08:13:28;36.97;;;13.80;;
66585;SDS011;53444;45.822;16.092;2022-12-18T08:15:56;28.30;;;12.88;;
66585;SDS011;53444;45.822;16.092;2022-12-18T08:18:24;34.28;;;13.52;;
66585;SDS011;53444;45.822;16.092;2022-12-18T08:20:50;30.17;;;12.20;;
66585;SDS011;53444;45.822;16.092;2022-12-18T08:23:17;28.65;;;12.90;;
66585;SDS011;53444;45.822;16.092;2022-12-18T08:25:43;28.63;;;12.32;;
66585;SDS011;53444;45.822;16.092;2022-12-18T08:28:10;27.10;;;12.18;;
66585;SDS011;53444;45.822;16.092;2022-12-18T08:30:37;33.05;;;12.68;;
66585;SDS011;53444;45.822;16.092;2022-12-18T08:33:05;30.73;;;11.60;;
66585;SDS011;53444;45.822;16.092;2022-12-18T08:35:34;30.25;;;10.88;;
66585;SDS011;53444;45.822;16.092;2022-12-18T08:38:02;22.08;;;10.35;;
66585;SDS011;53444;45.822;16.092;2022-12-18T08:40:28;25.30;;;11.00;;
66585;SDS011;53444;45.822;16.092;2022-12-18T08:42:55;26.67;;;11.55;;
66585;SDS011;53444;45.822;16.092;2022-12-18T08:45:39;24.87;;;10.83;;
66585;SDS011;53444;45.822;16.092;2022-12-18T08:48:07;22.77;;;10.50;;
66585;SDS011;53444;45.822;16.092;2022-12-18T08:50:34;28.88;;;12.10;;
66585;SDS011;53444;45.822;16.092;2022-12-18T08:53:00;23.20;;;9.98;;
66585;SDS011;53444;45.822;16.092;2022-12-18T08:55:27;29.95;;;13.35;;
66585;SDS011;53444;45.822;16.092;2022-12-18T08:57:54;28.10;;;11.70;;
66585;SDS011;53444;45.822;16.092;2022-12-18T09:00:20;24.15;;;9.15;;
66585;SDS011;53444;45.822;16.092;2022-12-18T09:02:47;23.77;;;9.35;;
66585;SDS011;53444;45.822;16.092;2022-12-18T09:05:15;26.98;;;11.25;;
66585;SDS011;53444;45.822;16.092;2022-12-18T09:07:42;23.73;;;9.93;;
66585;SDS011;53444;45.822;16.092;2022-12-18T09:10:08;20.83;;;10.17;;
66585;SDS011;53444;45.822;16.092;2022-12-18T09:12:35;31.55;;;10.02;;
66585;SDS011;53444;45.822;16.092;2022-12-18T09:15:02;22.30;;;10.20;;
66585;SDS011;53444;45.822;16.092;2022-12-18T09:17:29;20.25;;;9.43;;
66585;SDS011;53444;45.822;16.092;2022-12-18T09:19:56;20.02;;;8.80;;
66585;SDS011;53444;45.822;16.092;2022-12-18T09:22:24;16.83;;;7.90;;
66585;SDS011;53444;45.822;16.092;2022-12-18T09:24:50;19.48;;;8.30;;
66585;SDS011;53444;45.822;16.092;2022-12-18T09:27:17;20.05;;;9.50;;
66585;SDS011;53444;45.822;16.092;2022-12-18T09:29:43;15.95;;;9.10;;
66585;SDS011;53444;45.822;16.092;2022-12-18T09:32:10;19.00;;;8.38;;
66585;SDS011;53444;45.822;16.092;2022-12-18T09:34:37;17.63;;;8.83;;
66585;SDS011;53444;45.822;16.092;2022-12-18T09:37:03;17.65;;;7.60;;
66585;SDS011;53444;45.822;16.092;2022-12-18T09:39:31;16.73;;;6.07;;
66585;SDS011;53444;45.822;16.092;2022-12-18T09:42:00;11.00;;;5.63;;
66585;SDS011;53444;45.822;16.092;2022-12-18T09:44:28;16.13;;;7.07;;
66585;SDS011;53444;45.822;16.092;2022-12-18T09:47:02;13.47;;;5.77;;
66585;SDS011;53444;45.822;16.092;2022-12-18T09:49:34;10.77;;;5.43;;
66585;SDS011;53444;45.822;16.092;2022-12-18T09:52:07;11.50;;;6.43;;
66585;SDS011;53444;45.822;16.092;2022-12-18T09:54:39;10.75;;;5.38;;
66585;SDS011;53444;45.822;16.092;2022-12-18T09:57:09;12.95;;;6.13;;
66585;SDS011;53444;45.822;16.092;2022-12-18T09:59:39;13.27;;;5.97;;
66585;SDS011;53444;45.822;16.092;2022-12-18T10:02:12;15.20;;;6.50;;
66585;SDS011;53444;45.822;16.092;2022-12-18T10:04:43;15.32;;;7.20;;
66585;SDS011;53444;45.822;16.092;2022-12-18T10:07:18;12.65;;;6.32;;
66585;SDS011;53444;45.822;16.092;2022-12-18T10:09:53;13.18;;;6.50;;
66585;SDS011;53444;45.822;16.092;2022-12-18T10:12:27;13.13;;;5.67;;
66585;SDS011;53444;45.822;16.092;2022-12-18T10:15:00;15.45;;;6.32;;
66585;SDS011;53444;45.822;16.092;2022-12-18T10:17:35;15.07;;;5.75;;
66585;SDS011;53444;45.822;16.092;2022-12-18T10:20:10;14.38;;;5.75;;
66585;SDS011;53444;45.822;16.092;2022-12-18T10:22:44;14.85;;;6.22;;
66585;SDS011;53444;45.822;16.092;2022-12-18T10:25:19;13.43;;;5.77;;
66585;SDS011;53444;45.822;16.092;2022-12-18T10:27:51;13.35;;;6.40;;
66585;SDS011;53444;45.822;16.092;2022-12-18T10:30:20;16.55;;;6.65;;
66585;SDS011;53444;45.822;16.092;2022-12-18T10:32:48;11.88;;;6.38;;
66585;SDS011;53444;45.822;16.092;2022-12-18T10:35:16;18.20;;;7.18;;
66585;SDS011;53444;45.822;16.092;2022-12-18T10:38:02;15.37;;;6.17;;
66585;SDS011;53444;45.822;16.092;2022-12-18T10:40:31;12.88;;;5.55;;
66585;SDS011;53444;45.822;16.092;2022-12-18T10:43:05;12.52;;;5.80;;
66585;SDS011;53444;45.822;16.092;2022-12-18T10:45:40;10.85;;;5.38;;
66585;SDS011;53444;45.822;16.092;2022-12-18T10:48:17;11.70;;;5.55;;
66585;SDS011;53444;45.822;16.092;2022-12-18T10:50:46;16.90;;;6.33;;
66585;SDS011;53444;45.822;16.092;2022-12-18T10:53:18;12.60;;;6.13;;
66585;SDS011;53444;45.822;16.092;2022-12-18T10:55:49;13.32;;;5.57;;
66585;SDS011;53444;45.822;16.092;2022-12-18T10:58:22;14.32;;;7.43;;
66585;SDS011;53444;45.822;16.092;2022-12-18T11:01:10;11.70;;;5.43;;
66585;SDS011;53444;45.822;16.092;2022-12-18T11:03:38;15.53;;;7.03;;
66585;SDS011;53444;45.822;16.092;2022-12-18T11:06:07;13.13;;;6.60;;
66585;SDS011;53444;45.822;16.092;2022-12-18T11:08:35;10.57;;;5.20;;
66585;SDS011;53444;45.822;16.092;2022-12-18T11:11:06;14.02;;;5.60;;
66585;SDS011;53444;45.822;16.092;2022-12-18T11:13:41;11.40;;;5.20;;
66585;SDS011;53444;45.822;16.092;2022-12-18T11:16:18;11.00;;;5.13;;
66585;SDS011;53444;45.822;16.092;2022-12-18T11:18:44;14.40;;;6.60;;
66585;SDS011;53444;45.822;16.092;2022-12-18T11:21:11;11.63;;;5.63;;
66585;SDS011;53444;45.822;16.092;2022-12-18T11:23:44;14.18;;;6.30;;
66585;SDS011;53444;45.822;16.092;2022-12-18T11:26:14;11.75;;;6.38;;
66585;SDS011;53444;45.822;16.092;2022-12-18T11:28:42;14.90;;;6.00;;
66585;SDS011;53444;45.822;16.092;2022-12-18T11:31:20;15.70;;;6.78;;
66585;SDS011;53444;45.822;16.092;2022-12-18T11:34:02;13.05;;;6.35;;
66585;SDS011;53444;45.822;16.092;2022-12-18T11:36:33;14.75;;;6.80;;
66585;SDS011;53444;45.822;16.092;2022-12-18T11:39:05;15.10;;;6.90;;
66585;SDS011;53444;45.822;16.092;2022-12-18T11:41:45;13.23;;;6.43;;
66585;SDS011;53444;45.822;16.092;2022-12-18T11:44:41;12.57;;;6.38;;
66585;SDS011;53444;45.822;16.092;2022-12-18T11:47:15;14.65;;;7.22;;
66585;SDS011;53444;45.822;16.092;2022-12-18T11:49:50;15.35;;;8.10;;
66585;SDS011;53444;45.822;16.092;2022-12-18T11:52:19;12.20;;;6.43;;
66585;SDS011;53444;45.822;16.092;2022-12-18T11:54:50;13.43;;;7.37;;
66585;SDS011;53444;45.822;16.092;2022-12-18T11:57:23;14.68;;;7.32;;
66585;SDS011;53444;45.822;16.092;2022-12-18T12:00:01;16.77;;;9.00;;
66585;SDS011;53444;45.822;16.092;2022-12-18T12:02:42;15.60;;;7.25;;
66585;SDS011;53444;45.822;16.092;2022-12-18T12:05:28;14.18;;;6.50;;
66585;SDS011;53444;45.822;16.092;2022-12-18T12:08:06;13.88;;;7.18;;
66585;SDS011;53444;45.822;16.092;2022-12-18T12:10:42;13.88;;;6.43;;
66585;SDS011;53444;45.822;16.092;2022-12-18T12:13:23;15.35;;;6.82;;
66585;SDS011;53444;45.822;16.092;2022-12-18T12:16:06;12.02;;;6.60;;
66585;SDS011;53444;45.822;16.092;2022-12-18T12:18:43;14.48;;;7.00;;
66585;SDS011;53444;45.822;16.092;2022-12-18T12:21:21;15.83;;;8.50;;
66585;SDS011;53444;45.822;16.092;2022-12-18T12:23:56;25.20;;;14.48;;
66585;SDS011;53444;45.822;16.092;2022-12-18T12:26:33;21.58;;;12.45;;
66585;SDS011;53444;45.822;16.092;2022-12-18T12:29:09;19.02;;;10.35;;
66585;SDS011;53444;45.822;16.092;2022-12-18T12:31:58;15.45;;;8.05;;
66585;SDS011;53444;45.822;16.092;2022-12-18T12:34:34;17.42;;;7.63;;
66585;SDS011;53444;45.822;16.092;2022-12-18T12:37:11;13.98;;;6.85;;
66585;SDS011;53444;45.822;16.092;2022-12-18T12:39:46;14.55;;;6.57;;
66585;SDS011;53444;45.822;16.092;2022-12-18T12:42:27;16.85;;;6.95;;
66585;SDS011;53444;45.822;16.092;2022-12-18T12:45:20;14.30;;;7.88;;
66585;SDS011;53444;45.822;16.092;2022-12-18T12:47:50;13.02;;;6.93;;
66585;SDS011;53444;45.822;16.092;2022-12-18T12:50:19;12.07;;;6.38;;
66585;SDS011;53444;45.822;16.092;2022-12-18T12:52:49;13.18;;;6.78;;
66585;SDS011;53444;45.822;16.092;2022-12-18T12:55:18;13.60;;;6.90;;
66585;SDS011;53444;45.822;16.092;2022-12-18T12:57:48;14.18;;;7.25;;
66585;SDS011;53444;45.822;16.092;2022-12-18T13:00:25;13.73;;;7.13;;
66585;SDS011;53444;45.822;16.092;2022-12-18T13:02:54;13.68;;;6.88;;
66585;SDS011;53444;45.822;16.092;2022-12-18T13:05:26;11.82;;;7.10;;
66585;SDS011;53444;45.822;16.092;2022-12-18T13:08:01;19.30;;;7.72;;
66585;SDS011;53444;45.822;16.092;2022-12-18T13:10:33;14.13;;;7.43;;
66585;SDS011;53444;45.822;16.092;2022-12-18T13:13:01;15.27;;;7.97;;
66585;SDS011;53444;45.822;16.092;2022-12-18T13:15:32;15.75;;;7.85;;
66585;SDS011;53444;45.822;16.092;2022-12-18T13:18:11;20.65;;;8.68;;
66585;SDS011;53444;45.822;16.092;2022-12-18T13:20:41;17.08;;;8.63;;
66585;SDS011;53444;45.822;16.092;2022-12-18T13:23:26;18.60;;;8.60;;
66585;SDS011;53444;45.822;16.092;2022-12-18T13:25:55;19.10;;;8.75;;
66585;SDS011;53444;45.822;16.092;2022-12-18T13:28:22;13.73;;;7.38;;
66585;SDS011;53444;45.822;16.092;2022-12-18T13:31:11;18.70;;;9.73;;
66585;SDS011;53444;45.822;16.092;2022-12-18T13:33:40;18.38;;;9.90;;
66585;SDS011;53444;45.822;16.092;2022-12-18T13:36:12;20.90;;;10.90;;
66585;SDS011;53444;45.822;16.092;2022-12-18T13:38:41;21.92;;;10.88;;
66585;SDS011;53444;45.822;16.092;2022-12-18T13:41:22;21.42;;;10.85;;
66585;SDS011;53444;45.822;16.092;2022-12-18T13:43:51;17.45;;;8.02;;
66585;SDS011;53444;45.822;16.092;2022-12-18T13:46:21;22.23;;;8.88;;
66585;SDS011;53444;45.822;16.092;2022-12-18T13:48:57;24.08;;;11.05;;
66585;SDS011;53444;45.822;16.092;2022-12-18T13:51:28;43.08;;;18.70;;
66585;SDS011;53444;45.822;16.092;2022-12-18T13:53:58;114.85;;;42.72;;
66585;SDS011;53444;45.822;16.092;2022-12-18T13:56:26;35.80;;;17.73;;
66585;SDS011;53444;45.822;16.092;2022-12-18T13:59:11;40.80;;;20.08;;
66585;SDS011;53444;45.822;16.092;2022-12-18T14:01:46;26.25;;;12.43;;
66585;SDS011;53444;45.822;16.092;2022-12-18T14:04:18;49.95;;;20.48;;
66585;SDS011;53444;45.822;16.092;2022-12-18T14:06:51;38.20;;;17.20;;
66585;SDS011;53444;45.822;16.092;2022-12-18T14:09:24;26.27;;;13.77;;
66585;SDS011;53444;45.822;16.092;2022-12-18T14:11:52;23.73;;;10.40;;
66585;SDS011;53444;45.822;16.092;2022-12-18T14:14:42;15.90;;;7.20;;
66585;SDS011;53444;45.822;16.092;2022-12-18T14:17:12;18.50;;;7.60;;
66585;SDS011;53444;45.822;16.092;2022-12-18T14:19:43;17.98;;;8.52;;
66585;SDS011;53444;45.822;16.092;2022-12-18T14:22:16;18.27;;;8.52;;
66585;SDS011;53444;45.822;16.092;2022-12-18T14:24:44;20.90;;;9.95;;
66585;SDS011;53444;45.822;16.092;2022-12-18T14:27:21;17.85;;;9.35;;
66585;SDS011;53444;45.822;16.092;2022-12-18T14:29:49;22.87;;;10.33;;
66585;SDS011;53444;45.822;16.092;2022-12-18T14:32:17;18.27;;;9.15;;